createdAt,value
2019-05-23T00:00:53.761Z,0.00
2019-05-23T00:02:46.546Z,0.00
2019-05-23T00:03:46.480Z,0.00
2019-05-23T00:05:39.253Z,0.00
2019-05-23T00:06:39.387Z,0.00
2019-05-23T00:08:31.949Z,0.00
2019-05-23T00:09:31.930Z,0.00
2019-05-23T00:11:24.673Z,0.00
2019-05-23T00:12:24.591Z,0.00
2019-05-23T00:14:17.440Z,0.00
2019-05-23T00:15:17.345Z,0.00
2019-05-23T00:17:10.171Z,0.00
2019-05-23T00:18:10.091Z,0.00
2019-05-23T00:20:02.989Z,0.00
2019-05-23T00:21:02.912Z,0.00
2019-05-23T00:22:55.758Z,0.00
2019-05-23T00:23:55.713Z,0.00
2019-05-23T00:25:48.478Z,0.00
2019-05-23T00:26:48.393Z,0.00
2019-05-23T00:28:41.284Z,0.00
2019-05-23T00:29:41.176Z,0.00
2019-05-23T00:31:33.968Z,0.00
2019-05-23T00:32:33.899Z,0.00
2019-05-23T00:34:26.681Z,0.00
2019-05-23T00:35:26.600Z,0.00
2019-05-23T00:37:19.414Z,0.00
2019-05-23T00:38:19.388Z,0.00
2019-05-23T00:40:12.168Z,0.00
2019-05-23T00:41:12.056Z,0.00
2019-05-23T00:43:04.841Z,0.00
2019-05-23T00:44:04.736Z,0.00
2019-05-23T00:45:57.725Z,0.00
2019-05-23T00:46:57.446Z,0.00
2019-05-23T00:48:50.271Z,0.00
2019-05-23T00:49:50.190Z,0.00
2019-05-23T00:51:42.973Z,0.00
2019-05-23T00:52:42.898Z,0.00
2019-05-23T00:54:35.638Z,0.00
2019-05-23T00:55:35.645Z,0.00
2019-05-23T00:57:28.369Z,0.00
2019-05-23T00:58:28.317Z,0.00
2019-05-23T01:00:21.079Z,0.00
2019-05-23T01:01:21.005Z,0.00
2019-05-23T01:03:13.776Z,0.00
2019-05-23T01:04:13.714Z,0.00
2019-05-23T01:06:06.489Z,0.00
2019-05-23T01:07:06.416Z,0.00
2019-05-23T01:08:59.172Z,0.00
2019-05-23T01:09:59.109Z,0.00
2019-05-23T01:11:51.877Z,0.00
2019-05-23T01:12:51.932Z,0.00
2019-05-23T01:14:44.637Z,0.00
2019-05-23T01:15:44.642Z,0.00
2019-05-23T01:17:37.430Z,0.00
2019-05-23T01:18:37.338Z,0.00
2019-05-23T01:20:30.420Z,0.00
2019-05-23T01:21:30.168Z,0.00
2019-05-23T01:23:22.949Z,0.00
2019-05-23T01:24:22.857Z,0.00
2019-05-23T01:26:15.628Z,0.00
2019-05-23T01:27:15.545Z,0.00
2019-05-23T01:29:08.331Z,0.00
2019-05-23T01:30:08.264Z,0.00
2019-05-23T01:32:01.072Z,0.00
2019-05-23T01:33:00.977Z,0.00
2019-05-23T01:34:53.750Z,0.00
2019-05-23T01:35:53.680Z,0.00
2019-05-23T01:37:46.474Z,0.00
2019-05-23T01:38:46.414Z,0.00
2019-05-23T01:40:39.159Z,0.00
2019-05-23T01:41:39.093Z,0.00
2019-05-23T01:43:31.881Z,0.00
2019-05-23T01:44:31.823Z,0.00
2019-05-23T01:46:24.775Z,0.00
2019-05-23T01:47:24.522Z,0.00
2019-05-23T01:49:17.355Z,0.00
2019-05-23T01:50:17.212Z,0.00
2019-05-23T01:52:09.997Z,0.00
2019-05-23T01:53:09.939Z,0.00
2019-05-23T01:55:34.868Z,0.00
2019-05-23T01:56:34.805Z,0.00
2019-05-23T01:58:27.578Z,0.00
2019-05-23T01:59:27.492Z,0.00
2019-05-23T02:01:20.243Z,0.00
2019-05-23T02:02:20.180Z,0.00
2019-05-23T02:04:12.966Z,0.00
2019-05-23T02:05:12.878Z,0.00
2019-05-23T02:07:05.651Z,0.00
2019-05-23T02:08:05.588Z,0.00
2019-05-23T02:09:58.351Z,0.00
2019-05-23T02:10:58.308Z,0.00
2019-05-23T02:12:51.066Z,0.00
2019-05-23T02:13:50.991Z,0.00
2019-05-23T02:15:43.780Z,0.00
2019-05-23T02:16:43.696Z,0.00
2019-05-23T02:18:36.470Z,0.00
2019-05-23T02:19:36.405Z,0.00
2019-05-23T02:21:29.168Z,0.00
2019-05-23T02:22:29.107Z,0.00
2019-05-23T02:24:21.882Z,0.00
2019-05-23T02:25:21.795Z,0.00
2019-05-23T02:27:14.589Z,0.00
2019-05-23T02:28:14.495Z,0.00
2019-05-23T02:30:07.267Z,0.00
2019-05-23T02:31:07.224Z,0.00
2019-05-23T02:32:59.969Z,0.00
2019-05-23T02:33:59.894Z,0.00
2019-05-23T02:35:52.663Z,0.00
2019-05-23T02:36:52.581Z,0.00
2019-05-23T02:38:45.416Z,0.00
2019-05-23T02:39:45.339Z,0.00
2019-05-23T02:41:38.101Z,0.00
2019-05-23T02:42:38.031Z,0.00
2019-05-23T02:44:30.799Z,0.00
2019-05-23T02:45:30.716Z,0.00
2019-05-23T02:47:23.477Z,0.00
2019-05-23T02:48:23.413Z,0.00
2019-05-23T02:50:16.194Z,0.00
2019-05-23T02:51:16.116Z,0.00
2019-05-23T02:53:08.892Z,0.00
2019-05-23T02:54:08.814Z,0.00
2019-05-23T02:56:01.589Z,0.00
2019-05-23T02:57:01.520Z,0.00
2019-05-23T02:58:54.323Z,0.00
2019-05-23T02:59:54.231Z,0.00
2019-05-23T03:01:47.001Z,0.00
2019-05-23T03:02:46.938Z,0.00
2019-05-23T03:04:39.708Z,0.00
2019-05-23T03:05:39.639Z,0.00
2019-05-23T03:07:32.510Z,0.00
2019-05-23T03:08:32.437Z,0.00
2019-05-23T03:10:25.246Z,0.00
2019-05-23T03:11:25.141Z,0.00
2019-05-23T03:13:17.920Z,5.63
2019-05-23T03:14:17.880Z,5.63
2019-05-23T03:16:10.639Z,5.63
2019-05-23T03:17:10.571Z,5.63
2019-05-23T03:19:03.318Z,5.63
2019-05-23T03:20:03.253Z,5.63
2019-05-23T03:21:56.048Z,5.63
2019-05-23T03:22:55.946Z,5.63
2019-05-23T03:24:48.769Z,11.25
2019-05-23T03:25:48.684Z,11.25
2019-05-23T03:27:41.434Z,11.25
2019-05-23T03:28:41.367Z,11.25
2019-05-23T03:30:34.149Z,16.88
2019-05-23T03:31:34.174Z,16.88
2019-05-23T03:33:26.849Z,16.88
2019-05-23T03:34:26.787Z,16.88
2019-05-23T03:36:19.559Z,16.88
2019-05-23T03:37:19.475Z,16.88
2019-05-23T03:39:12.268Z,22.50
2019-05-23T03:40:12.196Z,22.50
2019-05-23T03:42:04.953Z,22.50
2019-05-23T03:43:04.886Z,28.13
2019-05-23T03:44:57.670Z,28.13
2019-05-23T03:45:57.584Z,28.13
2019-05-23T03:47:50.381Z,28.13
2019-05-23T03:48:50.342Z,28.13
2019-05-23T03:50:43.069Z,33.75
2019-05-23T03:51:42.982Z,33.75
2019-05-23T03:53:35.760Z,33.75
2019-05-23T03:54:35.702Z,39.38
2019-05-23T03:56:28.483Z,39.38
2019-05-23T03:57:28.402Z,39.38
2019-05-23T03:59:21.205Z,39.38
2019-05-23T04:00:21.121Z,39.38
2019-05-23T04:02:13.905Z,39.38
2019-05-23T04:03:13.841Z,39.38
2019-05-23T04:05:06.611Z,39.38
2019-05-23T04:06:06.540Z,39.38
2019-05-23T04:07:59.295Z,39.38
2019-05-23T04:08:59.227Z,39.38
2019-05-23T04:10:52.559Z,39.38
2019-05-23T04:11:51.917Z,45.00
2019-05-23T04:13:44.685Z,45.00
2019-05-23T04:14:44.620Z,45.00
2019-05-23T04:16:37.409Z,50.63
2019-05-23T04:17:37.319Z,50.63
2019-05-23T04:19:30.200Z,50.63
2019-05-23T04:20:30.035Z,50.63
2019-05-23T04:22:22.804Z,50.63
2019-05-23T04:23:22.730Z,50.63
2019-05-23T04:25:15.517Z,56.25
2019-05-23T04:26:15.433Z,56.25
2019-05-23T04:28:08.223Z,61.88
2019-05-23T04:29:08.160Z,56.25
2019-05-23T04:31:00.937Z,61.88
2019-05-23T04:32:07.709Z,73.13
2019-05-23T04:33:53.641Z,73.13
2019-05-23T04:34:53.565Z,78.75
2019-05-23T04:36:46.360Z,101.25
2019-05-23T04:37:46.260Z,101.25
2019-05-23T04:39:39.029Z,112.50
2019-05-23T04:40:38.967Z,106.88
2019-05-23T04:42:31.742Z,118.13
2019-05-23T04:43:31.660Z,118.13
2019-05-23T04:45:24.468Z,135.00
2019-05-23T04:46:24.371Z,135.00
2019-05-23T04:48:17.127Z,157.50
2019-05-23T04:49:17.067Z,163.13
2019-05-23T04:51:10.704Z,196.88
2019-05-23T04:52:10.601Z,225.00
2019-05-23T04:54:03.402Z,326.25
2019-05-23T04:55:03.324Z,393.75
2019-05-23T04:56:56.112Z,601.88
2019-05-23T04:57:56.043Z,675.00
2019-05-23T04:59:48.828Z,736.88
2019-05-23T05:00:48.776Z,753.75
2019-05-23T05:02:41.528Z,725.63
2019-05-23T05:03:41.444Z,770.63
2019-05-23T05:05:34.226Z,781.88
2019-05-23T05:06:34.149Z,776.25
2019-05-23T05:08:26.914Z,810.00
2019-05-23T05:09:26.845Z,804.38
2019-05-23T05:11:19.852Z,832.50
2019-05-23T05:12:19.565Z,838.13
2019-05-23T05:14:12.424Z,826.88
2019-05-23T05:15:12.279Z,838.13
2019-05-23T05:17:05.053Z,843.75
2019-05-23T05:18:04.982Z,866.25
2019-05-23T05:19:57.750Z,860.63
2019-05-23T05:20:57.690Z,838.13
2019-05-23T05:22:50.478Z,900.00
2019-05-23T05:23:50.407Z,877.50
2019-05-23T05:25:43.186Z,905.63
2019-05-23T05:26:43.138Z,911.25
2019-05-23T05:28:35.901Z,928.13
2019-05-23T05:29:35.823Z,928.13
2019-05-23T05:31:28.631Z,933.75
2019-05-23T05:32:43.239Z,956.25
2019-05-23T05:34:21.328Z,956.25
2019-05-23T05:35:21.270Z,978.75
2019-05-23T05:37:14.072Z,984.38
2019-05-23T05:38:13.995Z,973.13
2019-05-23T05:40:06.783Z,990.00
2019-05-23T05:41:06.716Z,990.00
2019-05-23T05:42:59.499Z,1006.88
2019-05-23T05:43:59.431Z,1023.75
2019-05-23T05:45:52.231Z,1035.00
2019-05-23T05:46:52.158Z,1046.25
2019-05-23T05:48:44.971Z,1035.00
2019-05-23T05:49:44.895Z,1051.88
2019-05-23T05:51:37.682Z,1080.00
2019-05-23T05:52:37.604Z,1102.50
2019-05-23T05:54:30.393Z,990.00
2019-05-23T05:55:30.333Z,1018.13
2019-05-23T05:57:23.136Z,1046.25
2019-05-23T05:58:23.048Z,1080.00
2019-05-23T06:00:15.862Z,1096.88
2019-05-23T06:01:31.158Z,1113.75
2019-05-23T06:03:08.565Z,1108.13
2019-05-23T06:04:08.519Z,1091.25
2019-05-23T06:06:01.286Z,1102.50
2019-05-23T06:07:01.224Z,1080.00
2019-05-23T06:08:54.054Z,1085.63
2019-05-23T06:09:53.957Z,1063.13
2019-05-23T06:11:46.829Z,1040.63
2019-05-23T06:12:46.681Z,1080.00
2019-05-23T06:14:39.477Z,1158.75
2019-05-23T06:15:39.409Z,1164.38
2019-05-23T06:17:32.222Z,1170.00
2019-05-23T06:18:32.151Z,1164.38
2019-05-23T06:20:24.918Z,1203.75
2019-05-23T06:21:24.862Z,1153.13
2019-05-23T06:23:17.667Z,1170.00
2019-05-23T06:24:17.586Z,1175.63
2019-05-23T06:26:10.382Z,1170.00
2019-05-23T06:27:10.322Z,1153.13
2019-05-23T06:29:03.126Z,1192.50
2019-05-23T06:30:03.058Z,1158.75
2019-05-23T06:31:55.852Z,1170.00
2019-05-23T06:32:55.785Z,1029.38
2019-05-23T06:34:48.591Z,1035.00
2019-05-23T06:35:48.533Z,1203.75
2019-05-23T06:37:41.348Z,1108.13
2019-05-23T06:38:41.230Z,1085.63
2019-05-23T06:40:34.027Z,1057.50
2019-05-23T06:41:33.976Z,1023.75
2019-05-23T06:43:26.767Z,1080.00
2019-05-23T06:44:26.754Z,1102.50
2019-05-23T06:46:19.510Z,1147.50
2019-05-23T06:47:19.451Z,1186.88
2019-05-23T06:49:12.300Z,1181.25
2019-05-23T06:50:12.207Z,1164.38
2019-05-23T06:52:04.973Z,1164.38
2019-05-23T06:53:05.054Z,1164.38
2019-05-23T06:54:59.833Z,1147.50
2019-05-23T06:55:57.655Z,1136.25
2019-05-23T06:57:50.434Z,990.00
2019-05-23T06:58:50.393Z,1006.88
2019-05-23T07:00:43.226Z,1203.75
2019-05-23T07:01:43.106Z,1203.75
2019-05-23T07:03:42.394Z,1136.25
2019-05-23T07:04:35.972Z,1271.25
2019-05-23T07:06:28.699Z,1282.50
2019-05-23T07:07:28.593Z,1305.00
2019-05-23T07:09:21.407Z,1327.50
2019-05-23T07:10:21.338Z,1316.25
2019-05-23T07:12:14.129Z,1321.88
2019-05-23T07:13:14.087Z,1338.75
2019-05-23T07:15:06.888Z,1136.25
2019-05-23T07:16:06.812Z,1035.00
2019-05-23T07:17:59.671Z,1085.63
2019-05-23T07:18:59.609Z,1130.63
2019-05-23T07:20:52.413Z,1237.50
2019-05-23T07:21:52.354Z,1226.25
2019-05-23T07:23:45.175Z,1271.25
2019-05-23T07:24:57.510Z,1226.25
2019-05-23T07:26:37.872Z,1108.13
2019-05-23T07:27:37.816Z,1260.00
2019-05-23T07:29:30.645Z,1310.63
2019-05-23T07:30:30.578Z,1310.63
2019-05-23T07:32:23.351Z,1327.50
2019-05-23T07:33:23.304Z,1327.50
2019-05-23T07:35:16.085Z,1299.38
2019-05-23T07:36:16.039Z,1327.50
2019-05-23T07:38:08.818Z,1378.13
2019-05-23T07:39:11.483Z,1395.00
2019-05-23T07:41:01.572Z,1400.63
2019-05-23T07:42:01.499Z,1389.38
2019-05-23T07:43:54.319Z,1378.13
2019-05-23T07:44:54.246Z,1338.75
2019-05-23T07:46:47.050Z,1350.00
2019-05-23T07:47:46.979Z,1440.00
2019-05-23T07:49:39.786Z,1383.75
2019-05-23T07:50:39.731Z,1310.63
2019-05-23T07:52:32.542Z,337.50
2019-05-23T07:53:32.469Z,1288.13
2019-05-23T07:55:25.336Z,1350.00
2019-05-23T07:56:25.287Z,1468.13
2019-05-23T07:58:18.048Z,1400.63
2019-05-23T07:59:17.977Z,922.50
2019-05-23T08:01:10.783Z,1552.50
2019-05-23T08:02:10.714Z,1563.75
2019-05-23T08:04:19.664Z,1524.38
2019-05-23T08:05:03.463Z,1485.00
2019-05-23T08:06:56.264Z,1299.38
2019-05-23T08:07:56.553Z,1451.25
2019-05-23T08:09:49.021Z,1451.25
2019-05-23T08:10:48.962Z,1378.13
2019-05-23T08:12:41.810Z,1445.63
2019-05-23T08:13:41.735Z,1462.50
2019-05-23T08:15:34.506Z,1468.13
2019-05-23T08:16:34.450Z,1462.50
2019-05-23T08:18:27.239Z,1490.63
2019-05-23T08:19:27.200Z,1530.00
2019-05-23T08:21:20.004Z,725.63
2019-05-23T08:22:19.975Z,1575.00
2019-05-23T08:24:12.722Z,1513.13
2019-05-23T08:25:12.692Z,1518.75
2019-05-23T08:27:05.495Z,1518.75
2019-05-23T08:28:05.425Z,1524.38
2019-05-23T08:29:58.403Z,1501.88
2019-05-23T08:30:58.163Z,1485.00
2019-05-23T08:32:50.949Z,1501.88
2019-05-23T08:33:50.895Z,1074.38
2019-05-23T08:35:43.719Z,1501.88
2019-05-23T08:36:43.646Z,1254.38
2019-05-23T08:38:36.454Z,545.63
2019-05-23T08:39:36.397Z,770.63
2019-05-23T08:41:29.202Z,1428.75
2019-05-23T08:42:29.172Z,1400.63
2019-05-23T08:44:21.954Z,1445.63
2019-05-23T08:45:21.976Z,1153.13
2019-05-23T08:47:14.706Z,1423.13
2019-05-23T08:48:14.640Z,382.50
2019-05-23T08:50:07.442Z,1395.00
2019-05-23T08:51:07.380Z,1372.50
2019-05-23T08:53:00.158Z,1305.00
2019-05-23T08:54:00.110Z,1299.38
2019-05-23T08:55:52.924Z,1226.25
2019-05-23T08:56:52.854Z,1186.88
2019-05-23T08:58:45.653Z,1119.38
2019-05-23T08:59:45.597Z,1085.63
2019-05-23T09:01:38.404Z,961.88
2019-05-23T09:02:38.339Z,1051.88
2019-05-23T09:04:31.173Z,573.75
2019-05-23T09:05:31.095Z,1057.50
2019-05-23T09:07:23.917Z,1080.00
2019-05-23T09:08:23.845Z,1091.25
2019-05-23T09:10:16.650Z,1063.13
2019-05-23T09:11:16.604Z,1063.13
2019-05-23T09:13:09.419Z,1074.38
2019-05-23T09:14:09.345Z,1102.50
2019-05-23T09:16:02.174Z,1046.25
2019-05-23T09:17:02.119Z,1057.50
2019-05-23T09:18:54.892Z,1046.25
2019-05-23T09:19:54.848Z,978.75
2019-05-23T09:21:47.647Z,950.63
2019-05-23T09:22:47.591Z,911.25
2019-05-23T09:24:40.394Z,916.88
2019-05-23T09:25:40.350Z,894.38
2019-05-23T09:27:34.718Z,905.63
2019-05-23T09:28:33.089Z,922.50
2019-05-23T09:30:25.884Z,922.50
2019-05-23T09:31:25.835Z,911.25
2019-05-23T09:33:18.655Z,939.38
2019-05-23T09:34:18.580Z,905.63
2019-05-23T09:36:11.441Z,888.75
2019-05-23T09:37:11.311Z,905.63
2019-05-23T09:39:04.098Z,922.50
2019-05-23T09:40:04.042Z,961.88
2019-05-23T09:41:56.856Z,1023.75
2019-05-23T09:42:56.787Z,1018.13
2019-05-23T09:44:49.577Z,1023.75
2019-05-23T09:45:49.528Z,1040.63
2019-05-23T09:47:42.336Z,1046.25
2019-05-23T09:48:42.271Z,1046.25
2019-05-23T09:50:35.070Z,945.00
2019-05-23T09:51:35.025Z,945.00
2019-05-23T09:53:27.823Z,978.75
2019-05-23T09:54:27.751Z,928.13
2019-05-23T09:56:20.562Z,860.63
2019-05-23T09:57:20.496Z,883.13
2019-05-23T09:59:13.313Z,821.25
2019-05-23T10:00:13.260Z,804.38
2019-05-23T10:02:06.083Z,765.00
2019-05-23T10:03:06.045Z,753.75
2019-05-23T10:04:58.802Z,725.63
2019-05-23T10:05:58.747Z,691.88
2019-05-23T10:07:51.567Z,641.25
2019-05-23T10:08:51.506Z,630.00
2019-05-23T10:10:44.319Z,601.88
2019-05-23T10:11:44.259Z,601.88
2019-05-23T10:13:39.372Z,585.00
2019-05-23T10:14:37.002Z,573.75
2019-05-23T10:16:29.799Z,528.75
2019-05-23T10:17:29.726Z,528.75
2019-05-23T10:19:22.542Z,534.38
2019-05-23T10:20:22.488Z,511.88
2019-05-23T10:22:15.490Z,478.13
2019-05-23T10:23:15.238Z,455.63
2019-05-23T10:25:08.058Z,399.38
2019-05-23T10:26:08.060Z,360.00
2019-05-23T10:28:00.810Z,337.50
2019-05-23T10:29:00.744Z,326.25
2019-05-23T10:30:53.567Z,270.00
2019-05-23T10:31:53.504Z,264.38
2019-05-23T10:33:46.328Z,264.38
2019-05-23T10:34:46.346Z,264.38
2019-05-23T10:36:39.090Z,270.00
2019-05-23T10:37:38.982Z,264.38
2019-05-23T10:39:31.800Z,264.38
2019-05-23T10:40:31.737Z,270.00
2019-05-23T10:42:24.582Z,264.38
2019-05-23T10:43:24.451Z,270.00
2019-05-23T10:45:17.251Z,270.00
2019-05-23T10:46:17.188Z,270.00
2019-05-23T10:48:09.982Z,264.38
2019-05-23T10:49:09.909Z,258.75
2019-05-23T10:51:02.696Z,270.00
2019-05-23T10:52:02.642Z,270.00
2019-05-23T10:53:55.432Z,270.00
2019-05-23T10:54:55.366Z,270.00
2019-05-23T10:56:48.168Z,275.63
2019-05-23T10:57:48.094Z,275.63
2019-05-23T10:59:40.899Z,275.63
2019-05-23T11:00:40.836Z,275.63
2019-05-23T11:02:33.635Z,275.63
2019-05-23T11:03:33.553Z,281.25
2019-05-23T11:05:26.343Z,286.88
2019-05-23T11:06:26.279Z,286.88
2019-05-23T11:08:19.206Z,286.88
2019-05-23T11:09:36.094Z,281.25
2019-05-23T11:11:14.413Z,281.25
2019-05-23T11:12:11.725Z,281.25
2019-05-23T11:14:08.180Z,286.88
2019-05-23T11:15:04.516Z,281.25
2019-05-23T11:16:57.225Z,286.88
2019-05-23T11:17:57.177Z,281.25
2019-05-23T11:19:49.993Z,281.25
2019-05-23T11:20:49.886Z,281.25
2019-05-23T11:22:42.693Z,281.25
2019-05-23T11:23:42.604Z,281.25
2019-05-23T11:25:35.475Z,275.63
2019-05-23T11:26:35.356Z,275.63
2019-05-23T11:28:28.142Z,275.63
2019-05-23T11:29:28.047Z,270.00
2019-05-23T11:31:20.832Z,264.38
2019-05-23T11:32:20.780Z,264.38
2019-05-23T11:34:13.568Z,258.75
2019-05-23T11:35:13.494Z,258.75
2019-05-23T11:37:06.264Z,253.13
2019-05-23T11:38:06.278Z,253.13
2019-05-23T11:39:59.011Z,247.50
2019-05-23T11:40:58.933Z,247.50
2019-05-23T11:42:52.782Z,241.88
2019-05-23T11:43:51.665Z,247.50
2019-05-23T11:45:46.071Z,241.88
2019-05-23T11:46:44.400Z,241.88
2019-05-23T11:48:37.198Z,241.88
2019-05-23T11:49:37.125Z,241.88
2019-05-23T11:51:29.938Z,241.88
2019-05-23T11:52:29.936Z,241.88
2019-05-23T11:54:22.665Z,241.88
2019-05-23T11:55:22.578Z,241.88
2019-05-23T11:57:15.370Z,241.88
2019-05-23T11:58:15.292Z,241.88
2019-05-23T12:00:08.098Z,241.88
2019-05-23T12:01:08.049Z,247.50
2019-05-23T12:03:00.818Z,241.88
2019-05-23T12:04:00.726Z,241.88
2019-05-23T12:05:53.556Z,236.25
2019-05-23T12:06:56.120Z,236.25
2019-05-23T12:08:46.245Z,247.50
2019-05-23T12:09:46.172Z,241.88
2019-05-23T12:11:42.459Z,247.50
2019-05-23T12:12:38.933Z,247.50
2019-05-23T12:14:31.691Z,247.50
2019-05-23T12:15:31.608Z,247.50
2019-05-23T12:17:24.399Z,253.13
2019-05-23T12:18:24.343Z,258.75
2019-05-23T12:20:17.140Z,253.13
2019-05-23T12:21:17.055Z,258.75
2019-05-23T12:23:11.202Z,253.13
2019-05-23T12:24:09.810Z,253.13
2019-05-23T12:26:02.562Z,253.13
2019-05-23T12:27:02.492Z,253.13
2019-05-23T12:28:55.295Z,258.75
2019-05-23T12:29:55.268Z,258.75
2019-05-23T12:31:49.615Z,264.38
2019-05-23T12:32:47.945Z,270.00
2019-05-23T12:34:40.851Z,270.00
2019-05-23T12:35:40.677Z,264.38
2019-05-23T12:37:33.434Z,264.38
2019-05-23T12:38:33.393Z,258.75
2019-05-23T12:40:26.170Z,247.50
2019-05-23T12:41:26.094Z,247.50
2019-05-23T12:43:18.887Z,236.25
2019-05-23T12:44:18.878Z,230.63
2019-05-23T12:46:11.645Z,225.00
2019-05-23T12:47:11.543Z,225.00
2019-05-23T12:49:04.333Z,213.75
2019-05-23T12:50:04.271Z,208.13
2019-05-23T12:51:57.058Z,196.88
2019-05-23T12:52:56.983Z,196.88
2019-05-23T12:54:49.809Z,191.25
2019-05-23T12:55:49.745Z,191.25
2019-05-23T12:57:42.521Z,185.63
2019-05-23T12:58:42.457Z,180.00
2019-05-23T13:00:35.584Z,185.63
2019-05-23T13:01:35.179Z,180.00
2019-05-23T13:03:27.947Z,168.75
2019-05-23T13:04:27.886Z,168.75
2019-05-23T13:06:20.705Z,168.75
2019-05-23T13:07:35.114Z,163.13
2019-05-23T13:09:13.447Z,157.50
2019-05-23T13:10:13.369Z,157.50
2019-05-23T13:12:06.159Z,163.13
2019-05-23T13:13:06.076Z,163.13
2019-05-23T13:14:59.260Z,174.38
2019-05-23T13:15:58.832Z,185.63
2019-05-23T13:17:51.641Z,191.25
2019-05-23T13:18:51.542Z,191.25
2019-05-23T13:20:44.348Z,191.25
2019-05-23T13:21:44.263Z,191.25
2019-05-23T13:23:37.051Z,196.88
2019-05-23T13:24:51.892Z,196.88
2019-05-23T13:26:29.805Z,196.88
2019-05-23T13:27:29.744Z,196.88
2019-05-23T13:29:24.634Z,196.88
2019-05-23T13:30:22.443Z,196.88
2019-05-23T13:32:15.233Z,202.50
2019-05-23T13:33:15.161Z,202.50
2019-05-23T13:35:08.001Z,202.50
2019-05-23T13:36:07.924Z,202.50
2019-05-23T13:38:00.740Z,196.88
2019-05-23T13:39:00.658Z,202.50
2019-05-23T13:40:53.444Z,208.13
2019-05-23T13:41:53.371Z,208.13
2019-05-23T13:43:46.145Z,191.25
2019-05-23T13:44:46.081Z,168.75
2019-05-23T13:46:38.888Z,196.88
2019-05-23T13:47:38.822Z,185.63
2019-05-23T13:49:31.630Z,202.50
2019-05-23T13:50:31.531Z,208.13
2019-05-23T13:52:24.312Z,163.13
2019-05-23T13:53:24.243Z,163.13
2019-05-23T13:55:17.082Z,174.38
2019-05-23T13:56:16.970Z,180.00
2019-05-23T13:58:09.905Z,151.88
2019-05-23T13:59:09.770Z,151.88
2019-05-23T14:01:02.555Z,151.88
2019-05-23T14:02:02.596Z,151.88
2019-05-23T14:03:55.276Z,157.50
2019-05-23T14:04:55.213Z,168.75
2019-05-23T14:06:48.037Z,157.50
2019-05-23T14:07:47.955Z,157.50
2019-05-23T14:09:40.737Z,157.50
2019-05-23T14:10:40.709Z,174.38
2019-05-23T14:12:33.529Z,196.88
2019-05-23T14:13:33.483Z,174.38
2019-05-23T14:15:26.300Z,202.50
2019-05-23T14:16:26.233Z,196.88
2019-05-23T14:18:19.074Z,180.00
2019-05-23T14:19:18.965Z,174.38
2019-05-23T14:21:11.804Z,168.75
2019-05-23T14:22:11.690Z,168.75
2019-05-23T14:24:04.535Z,174.38
2019-05-23T14:25:04.592Z,174.38
2019-05-23T14:26:57.299Z,180.00
2019-05-23T14:27:57.254Z,180.00
2019-05-23T14:29:50.023Z,236.25
2019-05-23T14:30:49.958Z,230.63
2019-05-23T14:32:42.783Z,241.88
2019-05-23T14:33:42.717Z,247.50
2019-05-23T14:35:36.376Z,241.88
2019-05-23T14:36:36.289Z,236.25
2019-05-23T14:38:31.304Z,225.00
2019-05-23T14:39:29.108Z,213.75
2019-05-23T14:41:21.879Z,219.38
2019-05-23T14:42:21.774Z,213.75
2019-05-23T14:44:14.715Z,208.13
2019-05-23T14:45:14.569Z,208.13
2019-05-23T14:47:07.373Z,213.75
2019-05-23T14:48:11.697Z,213.75
2019-05-23T14:50:00.066Z,213.75
2019-05-23T14:51:00.014Z,225.00
2019-05-23T14:52:52.813Z,225.00
2019-05-23T14:53:52.740Z,225.00
2019-05-23T14:55:45.560Z,225.00
2019-05-23T14:56:45.465Z,219.38
2019-05-23T14:58:38.229Z,208.13
2019-05-23T14:59:38.166Z,202.50
2019-05-23T15:01:30.978Z,196.88
2019-05-23T15:02:30.932Z,191.25
2019-05-23T15:04:23.696Z,191.25
2019-05-23T15:05:23.615Z,191.25
2019-05-23T15:07:16.419Z,191.25
2019-05-23T15:08:16.355Z,191.25
2019-05-23T15:10:09.116Z,191.25
2019-05-23T15:11:09.074Z,185.63
2019-05-23T15:13:01.895Z,185.63
2019-05-23T15:14:01.789Z,185.63
2019-05-23T15:15:54.600Z,185.63
2019-05-23T15:16:54.512Z,185.63
2019-05-23T15:18:47.320Z,185.63
2019-05-23T15:19:47.249Z,185.63
2019-05-23T15:21:40.072Z,191.25
2019-05-23T15:22:39.955Z,168.75
2019-05-23T15:24:32.742Z,140.63
2019-05-23T15:25:32.711Z,146.25
2019-05-23T15:27:25.496Z,163.13
2019-05-23T15:28:25.433Z,157.50
2019-05-23T15:30:18.228Z,163.13
2019-05-23T15:31:18.156Z,157.50
2019-05-23T15:33:10.972Z,146.25
2019-05-23T15:34:10.943Z,146.25
2019-05-23T15:36:03.758Z,140.63
2019-05-23T15:37:03.628Z,146.25
2019-05-23T15:39:08.987Z,151.88
2019-05-23T15:39:56.396Z,151.88
2019-05-23T15:41:49.155Z,151.88
2019-05-23T15:42:49.077Z,151.88
2019-05-23T15:44:41.886Z,151.88
2019-05-23T15:45:41.797Z,151.88
2019-05-23T15:47:34.586Z,151.88
2019-05-23T15:48:34.520Z,151.88
2019-05-23T15:50:27.315Z,157.50
2019-05-23T15:51:27.252Z,163.13
2019-05-23T15:53:20.067Z,135.00
2019-05-23T15:54:20.007Z,140.63
2019-05-23T15:56:26.759Z,157.50
2019-05-23T15:57:12.721Z,168.75
2019-05-23T15:59:05.548Z,163.13
2019-05-23T16:00:05.444Z,157.50
2019-05-23T16:01:58.224Z,157.50
2019-05-23T16:02:58.165Z,157.50
2019-05-23T16:04:50.974Z,151.88
2019-05-23T16:05:50.885Z,151.88
2019-05-23T16:07:43.697Z,146.25
2019-05-23T16:08:43.602Z,146.25
2019-05-23T16:10:36.544Z,135.00
2019-05-23T16:11:36.511Z,135.00
2019-05-23T16:13:29.284Z,129.38
2019-05-23T16:14:29.297Z,135.00
2019-05-23T16:16:22.010Z,129.38
2019-05-23T16:17:21.947Z,135.00
2019-05-23T16:19:14.930Z,135.00
2019-05-23T16:20:14.725Z,135.00
2019-05-23T16:22:07.539Z,140.63
2019-05-23T16:23:07.439Z,135.00
2019-05-23T16:25:00.240Z,129.38
2019-05-23T16:26:00.163Z,129.38
2019-05-23T16:27:53.014Z,118.13
2019-05-23T16:28:52.874Z,95.63
2019-05-23T16:30:45.696Z,95.63
2019-05-23T16:31:45.629Z,95.63
2019-05-23T16:33:38.426Z,101.25
2019-05-23T16:34:38.355Z,118.13
2019-05-23T16:36:31.188Z,112.50
2019-05-23T16:37:31.087Z,118.13
2019-05-23T16:39:23.886Z,118.13
2019-05-23T16:40:23.815Z,118.13
2019-05-23T16:42:16.598Z,95.63
2019-05-23T16:43:16.545Z,95.63
2019-05-23T16:45:09.313Z,101.25
2019-05-23T16:46:09.239Z,106.88
2019-05-23T16:48:02.037Z,106.88
2019-05-23T16:49:01.944Z,106.88
2019-05-23T16:50:56.014Z,95.63
2019-05-23T16:51:55.911Z,95.63
2019-05-23T16:53:48.708Z,95.63
2019-05-23T16:54:48.657Z,95.63
2019-05-23T16:56:41.421Z,95.63
2019-05-23T16:57:41.356Z,95.63
2019-05-23T16:59:34.158Z,95.63
2019-05-23T17:00:34.089Z,95.63
2019-05-23T17:02:26.839Z,90.00
2019-05-23T17:03:26.774Z,90.00
2019-05-23T17:05:19.582Z,90.00
2019-05-23T17:06:19.485Z,90.00
2019-05-23T17:08:12.263Z,95.63
2019-05-23T17:09:12.194Z,95.63
2019-05-23T17:11:04.985Z,90.00
2019-05-23T17:12:04.941Z,95.63
2019-05-23T17:13:57.704Z,84.38
2019-05-23T17:14:57.629Z,90.00
2019-05-23T17:16:50.443Z,84.38
2019-05-23T17:18:02.248Z,78.75
2019-05-23T17:19:43.156Z,73.13
2019-05-23T17:20:43.070Z,73.13
2019-05-23T17:22:35.840Z,73.13
2019-05-23T17:23:35.771Z,73.13
2019-05-23T17:25:28.553Z,67.50
2019-05-23T17:26:28.477Z,67.50
2019-05-23T17:28:21.266Z,67.50
2019-05-23T17:29:21.202Z,67.50
2019-05-23T17:31:14.007Z,61.88
2019-05-23T17:32:13.912Z,61.88
2019-05-23T17:34:06.732Z,61.88
2019-05-23T17:35:06.662Z,61.88
2019-05-23T17:36:59.411Z,61.88
2019-05-23T17:37:59.343Z,61.88
2019-05-23T17:39:53.496Z,56.25
2019-05-23T17:40:52.034Z,56.25
2019-05-23T17:42:44.816Z,56.25
2019-05-23T17:43:44.749Z,56.25
2019-05-23T17:45:37.539Z,50.63
2019-05-23T17:46:37.457Z,50.63
2019-05-23T17:48:30.267Z,50.63
2019-05-23T17:49:30.175Z,50.63
2019-05-23T17:51:22.987Z,45.00
2019-05-23T17:52:22.889Z,45.00
2019-05-23T17:54:15.664Z,45.00
2019-05-23T17:55:15.601Z,45.00
2019-05-23T17:57:08.440Z,45.00
2019-05-23T17:58:08.359Z,45.00
2019-05-23T18:00:01.136Z,39.38
2019-05-23T18:01:01.122Z,39.38
2019-05-23T18:02:53.882Z,39.38
2019-05-23T18:03:53.785Z,39.38
2019-05-23T18:05:46.616Z,28.13
2019-05-23T18:06:46.535Z,28.13
2019-05-23T18:08:39.324Z,28.13
2019-05-23T18:09:39.245Z,33.75